SCDA 241500Z 23012KT 9999 FEW030 18/12 Q1017